AirNav   Air Wisconsin pilot careers
 
 1184 users online  

38NJ WJRZ Radio Heliport
Manahawkin, New Jersey, USA

GOING TO MANAHAWKIN?


FAA INFORMATION EFFECTIVE 01 FEBRUARY 2018

Location

FAA Identifier: 38NJ
Lat/Long: 39-41-57.4290N / 074-14-03.5050W
39-41.957150N / 074-14.058417W
39.6992858 / -74.2343069
(estimated)
Elevation: 11 ft. / 3 m (estimated)
Variation: 12W (1985)
From city: 1 mile E of MANAHAWKIN, NJ
Time zone: UTC -5 (UTC -4 during Daylight Saving Time)
Zip code: 08050

Heliport Operations

Heliport use: Private use. Permission required prior to landing
Activation date: 11/1982
Control tower: no
ARTCC: WASHINGTON CENTER
FSS: MILLVILLE FLIGHT SERVICE STATION
Attendance: 0500-1900
Wind indicator: yes
Segmented circle: no

Heliport Communications

UNICOM: 123.05
WX AWOS-3PT at MJX (14 nm N): 119.875 (732-797-2542)

Nearby radio navigation aids

VOR radial/distance  VOR name  Freq  Var
CYNr138/11.5COYLE VORTAC113.4010W
ACYr057/21.5ATLANTIC CITY VORTAC108.6010W
GXUr150/25.0MC GUIRE VORTAC110.6012W
RBVr168/32.5ROBBINSVILLE VORTAC113.8010W
VCNr084/35.2CEDAR LAKE VOR/DME115.2010W
COLr196/36.9COLTS NECK VOR/DME115.4011W

 
NDB name  Hdg/Dist  Freq  Var  ID
LAKEHURST178/21.339611WNEL -. . .-..

Heliport Services

Runway Information

Helipad H1

Dimensions: 480 x 200 ft. / 146 x 61 m
Surface: turf, in fair condition
Latitude: 39-41.957150N
Longitude: 074-14.058417W
Elevation: 11.0 ft.
Traffic pattern: leftleft
Markings: none, in fair condition

Heliport Ownership and Management from official FAA records

Ownership: Privately-owned
Owner: JERSEY SHORE BROADCASTING
1001 BEACH AVE. PO BOX 1000
MANAHAWKIN, NJ 08050
Phone 609-597-1100
Manager: J. KNOX, JR. & L. DE BOCK
1001 BEACH AVE. PO BOX 1000
MANHAWKIN, NJ 08050
Phone 609-597-1100

Heliport Operational Statistics

Aircraft based on the field: 1
Helicopters: 1
    

Additional Remarks

A52-H1 340' RADIO TOWER (MKD/LGTD) NEAR HELIPAD.
MRKD/LGTD PLINE NORTH & WEST OF PAD.

Instrument Procedures

There are no published instrument procedures at 38NJ.

Some nearby airports with instrument procedures:

31E - Eagles Nest Airport (4 nm SW)
KMJX - Ocean County Airport (14 nm N)
KNEL - Lakehurst Maxfield Field Airport (21 nm N)
KACY - Atlantic City International Airport (21 nm SW)
N12 - Lakewood Airport (22 nm N)
 
Loc | Ops | Rwys | IFR | FBO | Links
Com | Nav | Svcs | Stats | Notes

AirNav Hotels Sweepstakes
 
Area around 38NJ (WJRZ Radio Heliport)
 
Road maps at: MapQuest Bing Google
 
Aerial photo
No photo
 
Sectional chart

 
Airport distance calculator
Flying to WJRZ Radio Heliport? Find the distance to fly.

From to 38NJ

Sunrise and sunset
Times for 25-Feb-2018
 Local
(UTC-5)
 Zulu
(UTC)
Morning civil twilight06:1011:10
Sunrise06:3711:37
Sunset17:4322:43
Evening civil twilight18:1023:10

Current date and time
Zulu (UTC)  25-Feb-2018 22:29:25
Local (UTC-5)  25-Feb-2018 17:29:25
 
METAR
KMJX 
14nm N 
AWOS-3 119.875 732-244-4450
252056Z AUTO 31006KT 10SM OVC004 08/07 A2999 RMK AO2 SLP160 6//// T00780072 53028 PNO $
KNEL 
20nm N 
252200Z AUTO VRB03KT 3/4SM OVC004 08/08 A2998 RMK AO2 SFC VIS 7 SLP150 T00780078 PNO $
KACY 
21nm SW 
252219Z 35004KT 10SM FEW006 11/10 A2997 RMK AO2 T01060100 $
KWRI 
25nm NW 
252156Z AUTO 36005KT 10SM OVC004 08/07 A2996 RMK AO2 CIG 003 RWY18 SLP146 T00750069
TAF
KACY 
21nm SW 
251742Z 2518/2618 24003KT P6SM OVC003 TEMPO 2518/2520 5SM -RA FM252000 26006KT P6SM VCSH BKN010 FM252200 27005KT P6SM BKN024 FM260000 VRB02KT P6SM BKN018 FM260500 VRB02KT 2SM BR BKN015 FM261500 33007KT P6SM BKN090
KWRI 
25nm NW 
252017Z 2520/2624 03006KT 9999 OVC004 510202 QNH2991INS BECMG 2523/2601 VRB06KT 9999 BKN010 OVC100 QNH2993INS BECMG 2601/2603 31006KT 9999 FEW012 BKN150 QNH2995INS BECMG 2617/2618 33006KT 9999 SCT150 QNH3009INS TX11/2521Z TN05/2610Z
NOTAMs
Click for the latest NOTAMs
NOTAMs are issued by the DoD/FAA and will open in a separate window not controlled by AirNav.

 

 
 

Would you like to see your business listed on this page?

 If your business provides an interesting product or service to pilots, flight crews, aircraft, or users of the WJRZ Radio Heliport, you should consider listing it here.  To start the listing process, click on the button below
 
Add a business
 

Other Pages about WJRZ Radio Heliport

Update a link
 
Copyright © AirNav, LLC. All rights reserved. Privacy Policy  Contact